createdAt,value
2022-12-01T00:25:08.784Z,53.37
2022-12-01T06:48:30.371Z,68.76
2022-12-01T11:29:43.132Z,72.15
2022-12-01T11:38:48.746Z,71.78
2022-12-01T11:58:58.341Z,72.94
2022-12-01T12:02:23.545Z,73.18
2022-12-01T12:05:20.674Z,73.90
2022-12-01T12:08:19.847Z,75.46
2022-12-01T12:11:23.479Z,75.72
2022-12-01T12:14:29.822Z,75.91
2022-12-01T12:17:18.323Z,77.00
2022-12-01T12:20:49.109Z,76.48
2022-12-01T12:23:19.418Z,75.94
2022-12-01T12:26:18.962Z,76.68
2022-12-01T12:29:47.745Z,77.61
2022-12-01T12:32:49.155Z,77.87
2022-12-01T12:35:42.391Z,77.83
2022-12-01T12:38:18.076Z,77.97
2022-12-01T12:41:18.468Z,78.08
2022-12-01T12:44:17.370Z,78.57
2022-12-01T12:47:17.379Z,78.57
2022-12-01T12:50:22.248Z,79.41
2022-12-01T12:53:17.771Z,79.40
2022-12-01T12:56:20.058Z,79.73
2022-12-01T12:59:19.968Z,80.56
2022-12-01T13:02:26.962Z,80.35
2022-12-01T13:05:18.891Z,81.50
2022-12-01T13:11:48.523Z,82.72
2022-12-01T13:15:17.741Z,83.89
2022-12-01T13:21:16.924Z,83.42
2022-12-01T13:23:53.629Z,83.77
2022-12-01T13:27:15.142Z,84.72
2022-12-01T13:29:55.141Z,85.39
2022-12-01T13:32:50.606Z,85.62
2022-12-01T13:35:50.198Z,85.17
2022-12-01T13:39:10.572Z,86.00
2022-12-01T13:44:45.607Z,85.98
2022-12-01T13:47:16.620Z,86.02
2022-12-01T13:49:46.352Z,86.78
2022-12-01T13:52:48.482Z,87.29
2022-12-01T13:55:18.589Z,87.72
2022-12-01T13:58:46.912Z,88.35
2022-12-01T14:06:49.420Z,91.05
2022-12-01T14:09:46.512Z,91.55
2022-12-01T14:19:53.200Z,91.43
2022-12-01T14:26:52.355Z,91.45
2022-12-01T14:29:48.105Z,91.55
2022-12-01T14:32:52.603Z,91.19
2022-12-01T14:35:49.941Z,91.47
2022-12-01T14:39:54.897Z,91.52
2022-12-01T14:45:29.397Z,92.10
2022-12-01T14:48:15.974Z,91.75
2022-12-01T14:51:26.949Z,92.21
2022-12-01T14:54:48.732Z,92.41
2022-12-01T14:57:46.486Z,93.33
2022-12-01T15:00:36.130Z,93.39
2022-12-01T15:03:17.089Z,93.58
2022-12-01T15:05:45.561Z,93.66
2022-12-01T15:08:43.593Z,93.58
2022-12-01T15:11:27.205Z,93.97
2022-12-01T15:13:56.893Z,94.38
2022-12-01T15:16:30.248Z,94.16
2022-12-01T15:18:59.095Z,94.28
2022-12-01T15:21:33.697Z,94.13
2022-12-01T15:24:26.384Z,94.29
2022-12-01T15:27:03.299Z,94.30
2022-12-01T15:29:43.910Z,94.74
2022-12-01T15:32:17.355Z,93.65
2022-12-01T15:34:48.661Z,93.29
2022-12-01T15:37:18.643Z,90.86
2022-12-01T15:39:51.287Z,90.82
2022-12-01T15:42:34.008Z,89.05
2022-12-01T15:45:21.992Z,89.10
2022-12-01T15:47:52.571Z,88.69
2022-12-01T15:50:27.477Z,87.64
2022-12-01T15:52:55.787Z,88.67
2022-12-01T15:55:29.488Z,89.19
2022-12-01T15:57:59.249Z,89.04
2022-12-01T16:00:31.514Z,87.49
2022-12-01T16:03:02.203Z,87.39
2022-12-01T16:05:34.268Z,86.85
2022-12-01T16:08:16.958Z,86.24
2022-12-01T16:10:45.303Z,85.96
2022-12-01T16:13:44.545Z,85.30
2022-12-01T16:16:39.993Z,85.59
2022-12-01T16:19:14.472Z,85.70
2022-12-01T16:21:49.774Z,84.96
2022-12-01T16:24:23.589Z,85.11
2022-12-01T16:27:02.711Z,84.78
2022-12-01T16:29:36.045Z,84.57
2022-12-01T16:32:27.993Z,83.77
2022-12-01T16:34:56.251Z,84.01
2022-12-01T16:37:24.924Z,83.40
2022-12-01T16:39:53.340Z,83.76
2022-12-01T16:42:22.648Z,83.70
2022-12-01T16:44:52.604Z,84.78
2022-12-01T16:47:33.008Z,85.06
2022-12-01T16:50:04.280Z,85.15
2022-12-01T16:52:47.741Z,85.96
2022-12-01T16:55:39.871Z,86.49
2022-12-01T16:58:14.371Z,85.95
2022-12-01T17:00:42.983Z,86.47
2022-12-01T17:03:14.014Z,86.58
2022-12-01T17:05:45.094Z,85.39
2022-12-01T17:08:16.587Z,86.30
2022-12-01T17:10:47.313Z,85.54
2022-12-01T17:13:15.561Z,86.17
2022-12-01T17:15:49.201Z,86.10
2022-12-01T17:18:19.348Z,86.17
2022-12-01T17:20:56.902Z,86.83
2022-12-01T17:23:28.265Z,86.66
2022-12-01T17:25:56.571Z,87.51
2022-12-01T17:28:24.918Z,86.60
2022-12-01T17:30:53.265Z,87.17
2022-12-01T17:33:21.637Z,87.18
2022-12-01T17:35:53.343Z,87.68
2022-12-01T17:38:21.651Z,88.19
2022-12-01T17:41:01.795Z,89.11
2022-12-01T17:43:34.779Z,89.63
2022-12-01T17:46:04.051Z,90.37
2022-12-01T17:48:40.059Z,90.97
2022-12-01T17:51:11.880Z,90.78
2022-12-01T17:53:41.167Z,89.38
2022-12-01T17:56:14.830Z,88.69
2022-12-01T17:58:53.378Z,87.76
2022-12-01T18:01:26.929Z,87.04
2022-12-01T18:04:02.669Z,87.17
2022-12-01T18:06:31.838Z,86.51
2022-12-01T18:09:01.877Z,86.61
2022-12-01T18:11:30.214Z,86.80
2022-12-01T18:13:59.177Z,87.59
2022-12-01T18:16:31.556Z,88.07
2022-12-01T18:19:01.530Z,86.24
2022-12-01T18:21:32.962Z,86.10
2022-12-01T18:24:04.147Z,85.29
2022-12-01T18:26:34.296Z,87.04
2022-12-01T18:29:11.004Z,87.13
2022-12-01T18:31:39.553Z,86.85
2022-12-01T18:34:08.993Z,87.41
2022-12-01T18:36:43.362Z,88.03
2022-12-01T18:39:12.934Z,88.50
2022-12-01T18:41:44.731Z,89.49
2022-12-01T18:44:13.099Z,89.79
2022-12-01T18:46:41.961Z,90.43
2022-12-01T18:49:10.694Z,90.95
2022-12-01T18:51:40.231Z,91.25
2022-12-01T18:54:10.608Z,91.38
2022-12-01T18:56:52.707Z,91.10
2022-12-01T18:59:21.603Z,91.06
2022-12-01T19:01:49.980Z,90.76
2022-12-01T19:04:18.549Z,91.59
2022-12-01T19:06:47.626Z,90.64
2022-12-01T19:09:17.299Z,90.89
2022-12-01T19:11:45.749Z,91.38
2022-12-01T19:14:19.142Z,90.16
2022-12-01T19:16:47.864Z,91.21
2022-12-01T19:19:16.282Z,91.45
2022-12-01T19:21:46.051Z,91.27
2022-12-01T19:24:14.444Z,91.33
2022-12-01T19:26:42.673Z,92.33
2022-12-01T19:29:14.010Z,91.66
2022-12-01T19:31:42.467Z,91.60
2022-12-01T19:34:10.849Z,90.97
2022-12-01T19:36:39.497Z,91.42
2022-12-01T19:39:10.867Z,90.66
2022-12-01T19:41:42.816Z,90.94
2022-12-01T19:44:14.409Z,90.47
2022-12-01T19:46:45.535Z,90.33
2022-12-01T19:49:13.825Z,90.67
2022-12-01T19:51:45.426Z,90.81
2022-12-01T19:54:22.052Z,90.00
2022-12-01T19:56:52.228Z,87.54
2022-12-01T19:59:20.677Z,86.08
2022-12-01T20:01:51.232Z,85.17
2022-12-01T20:04:19.562Z,84.12
2022-12-01T20:06:47.848Z,85.36
2022-12-01T20:09:16.032Z,83.48
2022-12-01T20:11:44.265Z,83.71
2022-12-01T20:14:15.742Z,84.52
2022-12-01T20:16:43.609Z,86.78
2022-12-01T20:19:14.746Z,84.41
2022-12-01T20:21:44.055Z,82.99
2022-12-01T20:24:15.310Z,83.65
2022-12-01T20:26:57.483Z,82.35
2022-12-01T20:29:28.453Z,81.25
2022-12-01T20:32:06.512Z,81.46
2022-12-01T20:34:42.967Z,81.29
2022-12-01T20:37:13.660Z,81.37
2022-12-01T20:39:42.255Z,80.51
2022-12-01T20:42:13.624Z,80.34
2022-12-01T20:44:44.194Z,80.13
2022-12-01T20:47:15.572Z,80.45
2022-12-01T20:49:43.766Z,79.66
2022-12-01T20:58:13.876Z,78.23
2022-12-01T21:00:48.317Z,79.43
2022-12-01T21:03:43.182Z,79.86
2022-12-01T21:09:44.207Z,79.15
2022-12-01T21:12:49.520Z,79.01
2022-12-01T21:16:13.898Z,78.69
2022-12-01T21:19:42.334Z,78.30
2022-12-01T21:22:45.029Z,77.95
2022-12-01T21:29:47.973Z,77.89
2022-12-01T21:32:44.282Z,77.06
2022-12-01T21:38:46.311Z,76.96
2022-12-01T21:42:22.450Z,75.67
2022-12-01T21:44:51.594Z,75.48
2022-12-01T21:50:50.919Z,74.47
2022-12-01T21:53:22.669Z,74.32
2022-12-01T21:55:51.249Z,74.07
2022-12-01T21:58:45.447Z,73.56
2022-12-01T22:01:45.562Z,73.52
2022-12-01T22:04:21.435Z,74.27
2022-12-01T22:09:42.989Z,74.20
2022-12-01T22:12:43.753Z,72.82
2022-12-01T22:15:43.755Z,74.08
2022-12-01T22:18:43.874Z,74.03
2022-12-01T22:21:45.355Z,73.51
2022-12-01T22:24:44.118Z,73.76
2022-12-01T22:27:43.010Z,73.26
2022-12-01T22:30:11.817Z,74.48
2022-12-01T22:33:11.988Z,73.28
2022-12-01T22:35:51.672Z,72.74
2022-12-01T22:38:44.054Z,70.71
2022-12-01T22:41:42.646Z,70.91
2022-12-01T22:44:15.483Z,71.22
2022-12-01T22:46:43.829Z,70.19
2022-12-01T22:49:30.539Z,70.60
2022-12-01T22:54:51.324Z,71.26
2022-12-01T22:57:44.844Z,70.54
2022-12-01T23:00:27.560Z,71.09
2022-12-01T23:02:57.645Z,70.56
2022-12-01T23:05:52.516Z,69.75
2022-12-01T23:08:46.778Z,69.25
2022-12-01T23:13:56.880Z,67.88
2022-12-01T23:16:43.880Z,69.05
2022-12-01T23:19:25.824Z,67.42
2022-12-01T23:22:04.295Z,67.09
2022-12-01T23:24:44.652Z,66.12
2022-12-01T23:27:47.887Z,66.10
2022-12-01T23:53:53.849Z,65.13
2022-12-01T23:58:05.145Z,65.21
2022-12-01T23:59:50.519Z,65.16
